LFTWLFMT

Guest
Details From LFTW - Garons Navy
To LFMT - Montpellier/Mediterranee
Flight Number -
Tags generated
Created
Modified
Stats Distance 23 nm / 42 km
Max Altitude 100 ft / 30 m
Waypoints 3
Social Downloads 1
Likes 0
Share VATSIM

Download

Looking for another format? Having issues loading an existing format? Contact us
Advertisement - Login to hide

Notes

Basic altitude profile: - Ascent Rate: 2500ft/min - Ascent Speed: 250kts - Cruise Altitude: 5000ft - Cruise Speed: 250kts - Descent Rate: 1500ft/min - Descent Speed: 250kts Options: - Use NATs: yes - Use PACOTS: yes - Use low airways: yes - Use high airways: yes

Route

LFTW FJR LFMT

ID Type Via Altitude Latitude Longitude Leg Dist Tot Dist Heading (true) Name
O LFTW APT - 0 ft / 0 m 43.75744˚ 4.41639˚ - 0 nm - Garons Navy
FJR VOR - 100 ft / 30 m 43.57836˚ 3.97472˚ 21 nm 21 nm 241° / 241° MONPELLIER MEDITERRANEE VOR-DM
O LFMT APT - 0 ft / 0 m 43.57626˚ 3.96326˚ 0 nm 22 nm 256° / 256° Montpellier/Mediterranee

Altitude Profile

Advertisement - Login to hide

LFTW

Details ICAO LFTW (FNI)
Name Garons Navy
Region France
Timezone Europe/Paris (UTC+1.0)
Stats Elevation 308 ft / 94 m (AMSL)
Location 43.757444° 4.416388°
Runways 1
Magnetic Variation 1.357° E

METAR

LFTW 180330Z AUTO 33006KT CAVOK 01/M03 Q1027 NOSIG

Decode

TAF

TAF LFTW 180200Z 1803/1903 VRB03KT CAVOK PROB30 TEMPO 1810/1816 -RA BKN030 BECMG 1816/1818 36013KT TEMPO 1820/1824 02020G30KT

Decode

Departure Runways

ID Width Length Bearing (true) Bearing (mag) Surface Threshold Offset Overrun Length
18 148 ft / 45 m 8,657 ft / 2,639 m 177.10° 175.74° Concrete 331 ft / 101 m 0 ft / 0 m
36 148 ft / 45 m 8,657 ft / 2,639 m 357.10° 355.74° Concrete 331 ft / 101 m 0 ft / 0 m

LFMT

Details ICAO LFMT (MPL)
Name Montpellier/Mediterranee
Region France
Timezone Europe/Paris (UTC+1.0)
Stats Elevation 16 ft / 5 m (AMSL)
Location 43.576262° 3.963261°
Runways 2
Magnetic Variation 1.248° E

METAR

LFMT 180330Z AUTO 26004KT CAVOK 02/M02 Q1028 NOSIG

Decode

TAF

TAF LFMT 180200Z 1803/1903 29003KT CAVOK BECMG 1808/1810 29013KT TEMPO 1810/1814 29015G25KT PROB30 TEMPO 1811/1816 03010KT -RA BKN014 BECMG 1816/1818 02010KT

Decode

Destination Runways

ID Width Length Bearing (true) Bearing (mag) Surface Threshold Offset Overrun Length
13L 164 ft / 50 m 8,525 ft / 2,598 m 124.78° 123.53° Asphalt 0 ft / 0 m 0 ft / 0 m
13R 98 ft / 30 m 3,611 ft / 1,101 m 124.80° 123.55° Asphalt 328 ft / 100 m 0 ft / 0 m
31L 98 ft / 30 m 3,611 ft / 1,101 m 304.81° 303.56° Asphalt 0 ft / 0 m 0 ft / 0 m
31R 164 ft / 50 m 8,525 ft / 2,598 m 304.80° 303.55° Asphalt 0 ft / 0 m 0 ft / 0 m

Approach Navaids

Runway Type Ident Frequency Range Bearing (true) Bearing (mag) Slope Elevation
31R Localiser FG 108.55 MHz 27 nm / 50 km 304.75° 303.50° - 16 ft / 5 m (AMSL)
31R Glidescope FG 108.55 MHz 27 nm / 50 km 304.75° 303.50° 3.00° 16 ft / 5 m (AMSL)
31R DME FG 108.55 MHz 27 nm / 50 km - - - 16 ft / 5 m (AMSL)

Popular Alternatives